createdAt,value
2023-01-02T00:05:31.868Z,148.47
2023-01-02T00:11:41.654Z,144.17
2023-01-02T00:14:22.146Z,156.90
2023-01-02T00:17:09.572Z,155.30
2023-01-02T00:33:02.578Z,153.53
2023-01-02T00:35:33.502Z,152.00
2023-01-02T00:38:20.773Z,152.90
2023-01-02T00:41:51.282Z,153.73
2023-01-02T00:52:46.253Z,141.90
2023-01-02T01:02:52.056Z,138.13
2023-01-02T01:05:59.261Z,131.23
2023-01-02T01:09:31.631Z,135.83
2023-01-02T01:13:11.072Z,128.23
2023-01-02T01:16:19.831Z,131.23
2023-01-02T01:23:09.083Z,120.27
2023-01-02T01:26:17.607Z,122.77
2023-01-02T01:28:55.178Z,128.47
2023-01-02T01:31:39.516Z,129.80
2023-01-02T01:34:22.238Z,121.10
2023-01-02T01:36:52.407Z,116.47
2023-01-02T01:42:14.231Z,120.70
2023-01-02T01:45:24.861Z,126.33
2023-01-02T01:48:17.381Z,126.33
2023-01-02T01:51:47.513Z,123.57
2023-01-02T01:54:54.513Z,136.30
2023-01-02T01:57:35.907Z,140.43
2023-01-02T02:00:20.607Z,141.37
2023-01-02T02:06:11.885Z,119.63
2023-01-02T02:08:59.907Z,133.00
2023-01-02T02:11:57.668Z,125.87
2023-01-02T02:14:30.072Z,129.73
2023-01-02T02:20:36.584Z,136.37
2023-01-02T02:23:40.783Z,126.67
2023-01-02T02:26:46.994Z,125.57
2023-01-02T02:30:02.518Z,126.47
2023-01-02T02:32:46.379Z,180.27
2023-01-02T02:35:25.600Z,173.97
2023-01-02T02:38:00.411Z,166.40
2023-01-02T02:40:45.692Z,155.67
2023-01-02T02:43:26.558Z,162.00
2023-01-02T02:46:12.494Z,149.23
2023-01-02T02:49:09.883Z,149.27
2023-01-02T02:51:49.190Z,137.43
2023-01-02T02:54:28.795Z,125.97
2023-01-02T02:57:02.691Z,122.77
2023-01-02T02:59:32.346Z,147.90
2023-01-02T03:02:21.192Z,145.30
2023-01-02T03:07:47.819Z,128.50
2023-01-02T03:10:24.914Z,142.33
2023-01-02T03:13:10.605Z,148.23
2023-01-02T03:15:52.495Z,142.93
2023-01-02T03:18:30.504Z,142.47
2023-01-02T03:21:09.166Z,146.20
2023-01-02T03:23:47.943Z,143.90
2023-01-02T03:29:41.089Z,128.00
2023-01-02T03:32:31.639Z,119.43
2023-01-02T03:35:25.712Z,120.63
2023-01-02T03:38:16.368Z,108.33
2023-01-02T03:40:50.527Z,143.23
2023-01-02T03:43:45.104Z,141.67
2023-01-02T03:46:20.393Z,139.73
2023-01-02T03:51:58.690Z,194.30
2023-01-02T03:54:41.118Z,280.07
2023-01-02T03:57:19.449Z,211.17
2023-01-02T04:00:17.774Z,177.60
2023-01-02T04:03:14.890Z,201.43
2023-01-02T04:08:18.611Z,189.60
2023-01-02T04:11:12.886Z,180.23
2023-01-02T04:13:49.383Z,190.57
2023-01-02T04:16:25.983Z,167.90
2023-01-02T04:19:06.061Z,322.67
2023-01-02T04:22:19.004Z,178.53
2023-01-02T04:25:18.504Z,243.50
2023-01-02T04:28:10.104Z,292.50
2023-01-02T04:30:56.554Z,179.03
2023-01-02T04:34:13.095Z,174.10
2023-01-02T04:36:53.744Z,221.07
2023-01-02T04:39:36.790Z,208.57
2023-01-02T04:42:15.223Z,240.67
2023-01-02T04:44:46.825Z,278.70
2023-01-02T04:47:22.028Z,171.90
2023-01-02T04:49:50.131Z,166.83
2023-01-02T04:52:18.047Z,306.60
2023-01-02T04:54:49.308Z,152.53
2023-01-02T04:57:23.733Z,185.33
2023-01-02T05:00:00.700Z,147.23
2023-01-02T05:02:44.226Z,147.93
2023-01-02T05:05:27.940Z,158.13
2023-01-02T05:07:57.137Z,145.67
2023-01-02T05:10:57.739Z,139.50
2023-01-02T05:13:30.158Z,131.60
2023-01-02T05:16:01.239Z,142.67
2023-01-02T05:18:38.693Z,151.03
2023-01-02T05:21:30.318Z,150.93
2023-01-02T05:24:07.372Z,140.23
2023-01-02T05:27:09.151Z,148.83
2023-01-02T05:29:41.584Z,139.43
2023-01-02T05:32:24.234Z,162.97
2023-01-02T05:34:59.653Z,154.43
2023-01-02T05:37:52.952Z,152.70
2023-01-02T05:40:49.047Z,145.53
2023-01-02T05:46:44.869Z,151.40
2023-01-02T05:49:14.603Z,136.77
2023-01-02T05:51:42.518Z,140.17
2023-01-02T05:54:10.630Z,145.80
2023-01-02T05:56:38.530Z,140.90
2023-01-02T05:59:09.249Z,127.00
2023-01-02T06:01:39.690Z,137.80
2023-01-02T06:04:07.708Z,134.60
2023-01-02T06:06:39.335Z,135.40
2023-01-02T06:09:11.140Z,143.67
2023-01-02T06:11:39.262Z,135.93
2023-01-02T06:14:13.033Z,154.40
2023-01-02T06:16:41.079Z,134.63
2023-01-02T06:19:09.865Z,183.97
2023-01-02T06:21:40.619Z,166.63
2023-01-02T06:24:13.793Z,223.50
2023-01-02T06:26:41.965Z,168.87
2023-01-02T06:29:11.063Z,190.90
2023-01-02T06:31:46.051Z,288.17
2023-01-02T06:34:17.774Z,282.40
2023-01-02T06:36:47.031Z,280.97
2023-01-02T06:39:14.884Z,302.97
2023-01-02T06:41:42.741Z,254.73
2023-01-02T06:44:13.513Z,263.70
2023-01-02T06:46:41.448Z,217.53
2023-01-02T06:49:09.325Z,117.67
2023-01-02T06:51:38.075Z,167.83
2023-01-02T06:54:08.986Z,159.17
2023-01-02T06:56:37.133Z,178.60
2023-01-02T06:59:05.049Z,141.40
2023-01-02T07:01:33.977Z,129.07
2023-01-02T07:04:02.112Z,180.97
2023-01-02T07:06:46.487Z,134.30
2023-01-02T07:09:15.879Z,143.23
2023-01-02T07:11:50.258Z,187.30
2023-01-02T07:14:18.640Z,113.23
2023-01-02T07:16:47.509Z,124.87
2023-01-02T07:19:15.504Z,160.00
2023-01-02T07:21:47.134Z,128.07
2023-01-02T07:24:21.231Z,140.13
2023-01-02T07:26:55.810Z,156.53
2023-01-02T07:32:10.462Z,131.43
2023-01-02T07:35:03.127Z,136.33
2023-01-02T07:37:31.029Z,207.53
2023-01-02T07:40:00.339Z,98.13
2023-01-02T07:42:29.332Z,107.20
2023-01-02T07:45:01.157Z,138.20
2023-01-02T07:47:30.179Z,182.90
2023-01-02T07:50:01.229Z,166.63
2023-01-02T07:52:29.276Z,225.47
2023-01-02T07:54:57.157Z,108.77
2023-01-02T07:57:26.462Z,159.77
2023-01-02T07:59:54.969Z,126.10
2023-01-02T08:02:22.962Z,165.80
2023-01-02T08:04:50.976Z,142.33
2023-01-02T08:07:19.060Z,115.73
2023-01-02T08:09:51.697Z,150.63
2023-01-02T08:12:21.256Z,124.03
2023-01-02T08:14:58.697Z,143.50
2023-01-02T08:17:26.587Z,132.40
2023-01-02T08:19:54.928Z,100.67
2023-01-02T08:22:22.964Z,87.87
2023-01-02T08:24:58.461Z,102.10
2023-01-02T08:27:29.026Z,156.67
2023-01-02T08:29:58.375Z,117.97
2023-01-02T08:32:26.605Z,127.80
2023-01-02T08:34:54.645Z,116.17
2023-01-02T08:37:22.705Z,91.67
2023-01-02T08:39:51.265Z,93.07
2023-01-02T08:42:21.943Z,83.30
2023-01-02T08:44:49.878Z,91.47
2023-01-02T08:47:19.154Z,84.23
2023-01-02T08:49:47.218Z,78.40
2023-01-02T08:52:16.741Z,79.07
2023-01-02T08:54:44.673Z,75.13
2023-01-02T08:57:14.957Z,77.43
2023-01-02T08:59:42.900Z,68.87
2023-01-02T09:02:14.972Z,68.30
2023-01-02T09:04:44.441Z,70.40
2023-01-02T09:07:12.292Z,74.77
2023-01-02T09:09:40.294Z,68.10
2023-01-02T09:12:08.340Z,72.63
2023-01-02T09:14:36.224Z,62.80
2023-01-02T09:17:04.173Z,66.70
2023-01-02T09:19:32.049Z,84.20
2023-01-02T09:22:02.352Z,67.70
2023-01-02T09:24:30.188Z,131.30
2023-01-02T09:26:59.072Z,99.03
2023-01-02T09:29:26.924Z,71.70
2023-01-02T09:31:54.956Z,71.90
2023-01-02T09:34:22.871Z,81.13
2023-01-02T09:36:50.902Z,93.33
2023-01-02T09:39:20.248Z,82.43
2023-01-02T09:41:51.523Z,76.67
2023-01-02T09:44:24.362Z,87.43
2023-01-02T09:47:00.293Z,78.97
2023-01-02T09:49:32.300Z,72.23
2023-01-02T09:52:00.499Z,66.50
2023-01-02T09:54:32.988Z,63.90
2023-01-02T09:57:34.939Z,60.87
2023-01-02T10:00:09.470Z,65.77
2023-01-02T10:02:50.817Z,58.33
2023-01-02T10:06:04.221Z,67.10
2023-01-02T10:08:42.980Z,62.90
2023-01-02T10:11:27.946Z,64.53
2023-01-02T10:14:19.376Z,67.60
2023-01-02T10:16:51.709Z,66.90
2023-01-02T10:19:25.003Z,64.03
2023-01-02T10:22:00.074Z,60.83
2023-01-02T10:24:44.663Z,58.93
2023-01-02T10:27:20.897Z,56.07
2023-01-02T10:30:01.227Z,54.30
2023-01-02T10:32:31.746Z,57.17
2023-01-02T10:35:11.760Z,53.03
2023-01-02T10:37:41.648Z,56.57
2023-01-02T10:40:16.329Z,67.07
2023-01-02T10:42:59.405Z,58.00
2023-01-02T10:45:37.239Z,54.67
2023-01-02T10:48:06.270Z,54.37
2023-01-02T10:50:42.142Z,48.03
2023-01-02T10:53:23.874Z,52.47
2023-01-02T10:55:52.207Z,50.23
2023-01-02T10:58:25.412Z,50.33
2023-01-02T11:01:06.455Z,46.03
2023-01-02T11:03:35.577Z,47.60
2023-01-02T11:06:25.678Z,47.47
2023-01-02T11:08:58.531Z,47.87
2023-01-02T11:11:29.270Z,46.47
2023-01-02T11:14:08.485Z,49.27
2023-01-02T11:16:40.009Z,47.97
2023-01-02T11:19:08.910Z,49.30
2023-01-02T11:21:40.496Z,51.60
2023-01-02T11:24:18.348Z,54.90
2023-01-02T11:26:48.476Z,52.80
2023-01-02T11:29:23.542Z,57.27
2023-01-02T11:31:57.936Z,60.20
2023-01-02T11:34:34.204Z,65.10
2023-01-02T11:37:07.405Z,64.87
2023-01-02T11:39:36.565Z,71.97
2023-01-02T11:42:38.200Z,75.40
2023-01-02T11:45:09.741Z,73.70
2023-01-02T11:47:41.374Z,71.18
2023-01-02T11:50:14.733Z,68.45
2023-01-02T11:52:52.448Z,72.53
2023-01-02T11:55:33.099Z,73.18
2023-01-02T11:58:07.729Z,69.78
2023-01-02T12:00:43.047Z,69.18
2023-01-02T12:03:18.877Z,68.45
2023-01-02T12:06:10.832Z,65.72
2023-01-02T12:08:52.041Z,70.25
2023-01-02T12:11:31.729Z,66.55
2023-01-02T12:14:11.698Z,65.65
2023-01-02T12:16:47.768Z,66.03
2023-01-02T12:19:37.169Z,64.18
2023-01-02T12:22:21.527Z,63.05
2023-01-02T12:25:14.943Z,62.95
2023-01-02T12:27:51.961Z,62.95
2023-01-02T12:30:21.685Z,64.47
2023-01-02T12:33:11.617Z,62.03
2023-01-02T12:36:15.899Z,62.00
2023-01-02T12:39:01.837Z,59.50
2023-01-02T12:41:35.812Z,60.33
2023-01-02T12:44:40.294Z,60.53
2023-01-02T12:47:38.267Z,59.10
2023-01-02T12:50:24.563Z,57.97
2023-01-02T12:53:05.054Z,56.28
2023-01-02T12:55:47.323Z,60.00
2023-01-02T12:58:29.921Z,59.05
2023-01-02T13:01:07.432Z,58.97
2023-01-02T13:03:49.305Z,54.03
2023-01-02T13:06:45.514Z,57.58
2023-01-02T13:09:21.748Z,61.72
2023-01-02T13:11:56.497Z,61.63
2023-01-02T13:14:31.087Z,60.42
2023-01-02T13:17:14.904Z,58.65
2023-01-02T13:19:49.791Z,59.03
2023-01-02T13:22:29.025Z,56.27
2023-01-02T13:24:58.108Z,54.80
2023-01-02T13:27:26.645Z,56.93
2023-01-02T13:29:54.815Z,52.47
2023-01-02T13:32:29.073Z,53.37
2023-01-02T13:34:59.771Z,52.57
2023-01-02T13:37:30.878Z,52.93
2023-01-02T13:40:01.348Z,49.90
2023-01-02T13:42:50.111Z,43.47
2023-01-02T13:45:20.407Z,42.93
2023-01-02T13:47:52.741Z,44.27
2023-01-02T13:50:26.465Z,38.90
2023-01-02T13:53:24.961Z,40.50
2023-01-02T13:56:12.571Z,39.63
2023-01-02T13:58:47.225Z,47.73
2023-01-02T14:01:49.980Z,39.20
2023-01-02T14:04:29.169Z,35.97
2023-01-02T14:07:17.072Z,37.17
2023-01-02T14:10:09.136Z,40.37
2023-01-02T14:12:43.790Z,34.83
2023-01-02T14:15:18.940Z,30.73
2023-01-02T14:17:54.479Z,39.00
2023-01-02T14:20:24.630Z,35.03
2023-01-02T14:22:54.960Z,38.80
2023-01-02T14:25:24.772Z,95.23
2023-01-02T14:27:54.928Z,56.80
2023-01-02T14:30:25.441Z,44.47
2023-01-02T14:32:54.644Z,44.33
2023-01-02T14:35:31.009Z,45.80
2023-01-02T14:38:10.193Z,45.63
2023-01-02T14:40:42.722Z,46.93
2023-01-02T14:43:32.930Z,44.83
2023-01-02T14:46:09.105Z,49.27
2023-01-02T14:48:40.553Z,47.70
2023-01-02T14:51:14.050Z,47.60
2023-01-02T14:53:50.129Z,45.87
2023-01-02T14:56:22.834Z,49.40
2023-01-02T14:58:52.809Z,51.60
2023-01-02T15:01:43.370Z,46.77
2023-01-02T15:07:42.695Z,54.17
2023-01-02T15:10:15.836Z,135.57
2023-01-02T15:13:07.260Z,57.47
2023-01-02T15:15:40.598Z,53.03
2023-01-02T15:18:16.729Z,63.80
2023-01-02T15:20:44.577Z,58.20
2023-01-02T15:23:21.063Z,58.50
2023-01-02T15:25:49.622Z,54.80
2023-01-02T15:28:27.729Z,56.97
2023-01-02T15:31:03.727Z,56.63
2023-01-02T15:33:33.689Z,62.50
2023-01-02T15:36:06.134Z,62.27
2023-01-02T15:38:34.532Z,84.27
2023-01-02T15:41:02.839Z,72.50
2023-01-02T15:43:53.052Z,141.70
2023-01-02T15:46:21.579Z,131.37
2023-01-02T15:48:50.628Z,151.93
2023-01-02T15:51:39.648Z,125.93
2023-01-02T15:54:14.929Z,90.60
2023-01-02T15:56:45.877Z,150.80
2023-01-02T15:59:29.292Z,139.87
2023-01-02T16:01:57.738Z,165.23
2023-01-02T16:04:27.754Z,112.83
2023-01-02T16:06:57.347Z,80.13
2023-01-02T16:09:28.356Z,73.70
2023-01-02T16:11:58.786Z,78.43
2023-01-02T16:14:36.400Z,86.67
2023-01-02T16:17:08.566Z,95.33
2023-01-02T16:19:39.864Z,107.70
2023-01-02T16:22:19.055Z,105.33
2023-01-02T16:24:49.597Z,83.17
2023-01-02T16:27:26.320Z,71.90
2023-01-02T16:29:56.366Z,119.97
2023-01-02T16:32:30.033Z,140.33
2023-01-02T16:35:03.215Z,142.00
2023-01-02T16:37:36.962Z,129.27
2023-01-02T16:41:01.492Z,114.90
2023-01-02T16:43:27.745Z,108.17
2023-01-02T16:45:58.136Z,114.60
2023-01-02T16:48:29.822Z,109.43
2023-01-02T16:50:59.571Z,114.27
2023-01-02T16:53:31.119Z,104.10
2023-01-02T16:55:59.058Z,87.63
2023-01-02T16:58:27.213Z,102.97
2023-01-02T17:00:57.312Z,114.67
2023-01-02T17:03:27.158Z,93.73
2023-01-02T17:06:01.233Z,106.60
2023-01-02T17:08:38.627Z,95.63
2023-01-02T17:11:06.733Z,89.03
2023-01-02T17:13:34.694Z,109.20
2023-01-02T17:16:04.419Z,89.43
2023-01-02T17:18:34.664Z,97.83
2023-01-02T17:21:02.607Z,103.23
2023-01-02T17:23:30.538Z,102.30
2023-01-02T17:26:01.856Z,109.43
2023-01-02T17:28:29.741Z,113.33
2023-01-02T17:30:59.113Z,149.23
2023-01-02T17:33:28.318Z,165.57
2023-01-02T17:35:59.056Z,157.30
2023-01-02T17:38:26.882Z,172.53
2023-01-02T17:40:58.978Z,123.40
2023-01-02T17:43:27.280Z,111.87
2023-01-02T17:45:55.223Z,114.37
2023-01-02T17:48:25.061Z,90.97
2023-01-02T17:50:54.939Z,102.33
2023-01-02T17:53:22.997Z,101.33
2023-01-02T17:56:21.869Z,87.43
2023-01-02T17:58:43.108Z,103.73
2023-01-02T18:01:15.933Z,92.53
2023-01-02T18:03:44.002Z,97.40
2023-01-02T18:06:13.295Z,90.93
2023-01-02T18:08:41.258Z,89.73
2023-01-02T18:11:11.140Z,85.30
2023-01-02T18:13:42.426Z,74.87
2023-01-02T18:16:16.415Z,91.17
2023-01-02T18:18:45.777Z,75.27
2023-01-02T18:21:17.034Z,75.43
2023-01-02T18:23:46.479Z,84.67
2023-01-02T18:26:16.492Z,79.97
2023-01-02T18:28:53.762Z,109.20
2023-01-02T18:31:22.615Z,88.37
2023-01-02T18:34:45.598Z,87.20
2023-01-02T18:37:18.421Z,82.00
2023-01-02T18:39:46.244Z,85.80
2023-01-02T18:42:16.102Z,83.03
2023-01-02T18:44:44.915Z,85.20
2023-01-02T18:47:25.915Z,88.77
2023-01-02T18:49:55.107Z,91.43
2023-01-02T18:52:27.792Z,82.67
2023-01-02T18:55:00.304Z,91.80
2023-01-02T18:57:32.880Z,100.57
2023-01-02T19:00:14.771Z,94.10
2023-01-02T19:02:56.955Z,122.23
2023-01-02T19:05:28.373Z,119.07
2023-01-02T19:08:06.041Z,100.90
2023-01-02T19:10:37.353Z,105.53
2023-01-02T19:13:07.881Z,116.10
2023-01-02T19:15:42.890Z,109.70
2023-01-02T19:18:27.270Z,121.70
2023-01-02T19:21:00.204Z,114.13
2023-01-02T19:23:32.688Z,181.03
2023-01-02T19:26:23.281Z,194.97
2023-01-02T19:28:56.464Z,152.57
2023-01-02T19:31:24.692Z,131.03
2023-01-02T19:33:57.244Z,126.80
2023-01-02T19:36:35.936Z,121.80
2023-01-02T19:39:24.574Z,124.70
2023-01-02T19:42:10.415Z,116.57
2023-01-02T19:44:38.341Z,123.23
2023-01-02T19:47:06.789Z,123.60
2023-01-02T19:49:34.782Z,130.03
2023-01-02T19:52:02.750Z,126.73
2023-01-02T19:54:32.007Z,132.57
2023-01-02T19:57:00.042Z,117.73
2023-01-02T19:59:29.233Z,145.00
2023-01-02T20:01:57.506Z,137.27
2023-01-02T20:04:25.593Z,135.53
2023-01-02T20:06:53.580Z,132.10
2023-01-02T20:09:25.538Z,124.20
2023-01-02T20:12:12.313Z,125.87
2023-01-02T20:14:42.160Z,128.30
2023-01-02T20:17:10.489Z,120.07
2023-01-02T20:19:40.444Z,126.97
2023-01-02T20:22:08.343Z,122.03
2023-01-02T20:24:36.579Z,125.17
2023-01-02T20:27:06.776Z,122.20
2023-01-02T20:29:34.691Z,116.43
2023-01-02T20:32:02.567Z,119.23
2023-01-02T20:34:30.516Z,118.50
2023-01-02T20:36:58.444Z,116.73
2023-01-02T20:39:26.357Z,120.63
2023-01-02T20:41:54.224Z,123.63
2023-01-02T20:44:23.684Z,120.90
2023-01-02T20:46:51.788Z,126.97
2023-01-02T20:49:19.758Z,118.70
2023-01-02T20:51:47.711Z,125.53
2023-01-02T20:54:16.041Z,123.37
2023-01-02T20:56:43.914Z,145.87
2023-01-02T20:59:11.779Z,162.97
2023-01-02T21:01:42.377Z,169.77
2023-01-02T21:04:10.489Z,124.77
2023-01-02T21:06:39.779Z,127.70
2023-01-02T21:09:07.738Z,155.13
2023-01-02T21:11:35.912Z,148.73
2023-01-02T21:14:03.859Z,141.10
2023-01-02T21:16:33.173Z,175.17
2023-01-02T21:19:03.415Z,215.47
2023-01-02T21:21:31.297Z,311.13
2023-01-02T21:23:59.130Z,301.03
2023-01-02T21:26:26.956Z,300.23
2023-01-02T21:28:54.973Z,272.67
2023-01-02T21:31:22.963Z,282.33
2023-01-02T21:33:51.036Z,239.60
2023-01-02T21:36:21.393Z,202.63
2023-01-02T21:38:49.213Z,232.60
2023-01-02T21:41:34.832Z,208.77
2023-01-02T21:44:02.722Z,194.83
2023-01-02T21:46:30.567Z,237.63
2023-01-02T21:48:58.415Z,241.27
2023-01-02T21:51:32.795Z,256.53
2023-01-02T21:54:02.453Z,218.73
2023-01-02T21:56:30.578Z,177.93
2023-01-02T21:58:58.443Z,182.60
2023-01-02T22:01:26.371Z,178.60
2023-01-02T22:03:57.024Z,201.90
2023-01-02T22:06:25.845Z,177.97
2023-01-02T22:08:55.065Z,198.93
2023-01-02T22:11:42.286Z,203.90
2023-01-02T22:14:10.105Z,183.20
2023-01-02T22:16:38.221Z,194.37
2023-01-02T22:19:06.154Z,208.67
2023-01-02T22:21:33.998Z,198.43
2023-01-02T22:24:03.365Z,197.83
2023-01-02T22:26:31.646Z,214.03
2023-01-02T22:28:59.804Z,215.83
2023-01-02T22:31:27.770Z,225.40
2023-01-02T22:33:56.814Z,201.63
2023-01-02T22:36:26.236Z,211.00
2023-01-02T22:39:26.537Z,206.70
2023-01-02T22:41:46.833Z,230.60
2023-01-02T22:44:17.479Z,213.93
2023-01-02T22:46:48.956Z,234.03
2023-01-02T22:49:19.581Z,452.17
2023-01-02T22:52:06.399Z,457.57
2023-01-02T22:54:35.076Z,360.83
2023-01-02T22:57:10.052Z,355.63
2023-01-02T22:59:37.923Z,254.87
2023-01-02T23:02:06.312Z,280.33
2023-01-02T23:04:34.253Z,620.60
2023-01-02T23:09:50.859Z,389.00
2023-01-02T23:12:20.071Z,288.17
2023-01-02T23:14:47.958Z,294.40
2023-01-02T23:17:33.363Z,309.30
2023-01-02T23:20:01.458Z,341.40
2023-01-02T23:22:29.527Z,358.33
2023-01-02T23:24:57.445Z,339.17
2023-01-02T23:27:26.654Z,569.17
2023-01-02T23:29:54.516Z,591.27
2023-01-02T23:32:22.410Z,530.33
2023-01-02T23:34:50.240Z,410.47
2023-01-02T23:37:18.145Z,528.87
2023-01-02T23:39:45.984Z,452.77
2023-01-02T23:42:13.782Z,598.63
2023-01-02T23:44:44.065Z,421.43
2023-01-02T23:47:17.163Z,240.30
2023-01-02T23:49:46.832Z,257.23
2023-01-02T23:52:14.918Z,279.37
2023-01-02T23:54:42.803Z,285.93
2023-01-02T23:57:13.443Z,264.00
2023-01-02T23:59:42.646Z,204.83
